createdAt,value
2024-04-16T00:00:06.357Z,64.85
2024-04-16T00:00:39.357Z,65.06
2024-04-16T00:01:10.830Z,65.31
2024-04-16T00:01:42.343Z,65.27
2024-04-16T00:02:13.787Z,65.11
2024-04-16T00:02:45.202Z,65.03
2024-04-16T00:03:16.655Z,64.96
2024-04-16T00:03:48.324Z,64.91
2024-04-16T00:04:19.829Z,64.82
2024-04-16T00:04:51.376Z,64.75
2024-04-16T00:05:22.930Z,64.70
2024-04-16T00:05:54.362Z,64.68
2024-04-16T00:06:25.847Z,64.74
2024-04-16T00:06:57.346Z,64.86
2024-04-16T00:07:28.953Z,64.97
2024-04-16T00:08:00.386Z,65.12
2024-04-16T00:08:31.817Z,65.18
2024-04-16T00:09:03.299Z,65.10
2024-04-16T00:09:34.705Z,65.00
2024-04-16T00:10:06.129Z,64.98
2024-04-16T00:10:37.606Z,64.97
2024-04-16T00:11:09.498Z,64.82
2024-04-16T00:11:40.918Z,64.89
2024-04-16T00:12:12.349Z,65.08
2024-04-16T00:12:43.751Z,65.17
2024-04-16T00:13:15.203Z,65.42
2024-04-16T00:13:46.665Z,65.55
2024-04-16T00:14:18.140Z,65.71
2024-04-16T00:14:49.551Z,65.76
2024-04-16T00:15:21.627Z,65.67
2024-04-16T00:15:53.081Z,66.01
2024-04-16T00:16:24.596Z,66.07
2024-04-16T00:16:56.093Z,66.03
2024-04-16T00:17:27.902Z,66.12
2024-04-16T00:17:59.481Z,66.16
2024-04-16T00:18:31.053Z,66.16
2024-04-16T00:19:03.351Z,65.99
2024-04-16T00:19:34.909Z,65.96
2024-04-16T00:20:07.085Z,65.93
2024-04-16T00:20:38.478Z,66.04
2024-04-16T00:21:09.903Z,66.01
2024-04-16T00:21:41.318Z,65.95
2024-04-16T00:22:12.772Z,65.98
2024-04-16T00:22:44.251Z,66.11
2024-04-16T00:23:15.711Z,66.19
2024-04-16T00:23:47.157Z,66.09
2024-04-16T00:24:19.079Z,66.11
2024-04-16T00:24:50.488Z,66.17
2024-04-16T00:25:21.928Z,66.36
2024-04-16T00:25:53.610Z,66.14
2024-04-16T00:26:25.132Z,66.02
2024-04-16T00:26:56.551Z,66.18
2024-04-16T00:27:27.963Z,66.28
2024-04-16T00:27:59.461Z,66.29
2024-04-16T00:28:31.104Z,66.29
2024-04-16T00:29:02.605Z,66.48
2024-04-16T00:29:34.028Z,66.64
2024-04-16T00:30:06.123Z,66.56
2024-04-16T00:30:37.894Z,66.55
2024-04-16T00:31:09.440Z,66.61
2024-04-16T00:31:40.961Z,66.63
2024-04-16T00:32:12.491Z,66.72
2024-04-16T00:32:44.313Z,66.71
2024-04-16T00:33:15.964Z,66.60
2024-04-16T00:33:47.427Z,66.47
2024-04-16T00:34:18.925Z,66.43
2024-04-16T00:34:50.338Z,66.57
2024-04-16T00:35:21.746Z,66.83
2024-04-16T00:35:53.182Z,67.16
2024-04-16T00:36:24.588Z,67.31
2024-04-16T00:36:56.004Z,67.16
2024-04-16T00:37:28.169Z,67.01
2024-04-16T00:37:59.586Z,66.94
2024-04-16T00:38:31.044Z,66.82
2024-04-16T00:39:02.782Z,66.97
2024-04-16T00:39:34.244Z,67.28
2024-04-16T00:40:06.120Z,67.52
2024-04-16T00:40:37.771Z,67.19
2024-04-16T00:41:09.218Z,66.73
2024-04-16T00:41:40.639Z,66.74
2024-04-16T00:42:12.049Z,67.06
2024-04-16T00:42:43.478Z,67.39
2024-04-16T00:43:19.460Z,67.40
2024-04-16T00:43:51.049Z,67.42
2024-04-16T00:44:23.892Z,67.48
2024-04-16T00:44:55.454Z,67.71
2024-04-16T00:45:27.229Z,67.96
2024-04-16T00:46:00.552Z,68.16
2024-04-16T00:46:32.545Z,68.02
2024-04-16T00:47:04.022Z,67.70
2024-04-16T00:47:36.546Z,67.62
2024-04-16T00:48:08.050Z,67.56
2024-04-16T00:48:39.688Z,67.57
2024-04-16T00:49:11.260Z,67.74
2024-04-16T00:49:43.688Z,67.95
2024-04-16T00:50:15.527Z,67.93
2024-04-16T00:50:47.305Z,67.94
2024-04-16T00:51:19.326Z,67.87
2024-04-16T00:51:52.341Z,67.95
2024-04-16T00:52:23.860Z,67.69
2024-04-16T00:52:55.279Z,67.50
2024-04-16T00:53:29.700Z,67.62
2024-04-16T00:54:02.768Z,67.78
2024-04-16T00:54:35.120Z,67.76
2024-04-16T00:55:07.803Z,67.83
2024-04-16T00:55:40.076Z,68.06
2024-04-16T00:56:11.585Z,68.12
2024-04-16T00:56:43.189Z,67.98
2024-04-16T00:57:14.770Z,67.73
2024-04-16T00:57:46.308Z,67.37
2024-04-16T00:58:19.254Z,67.46
2024-04-16T00:58:51.113Z,67.64
2024-04-16T00:59:26.492Z,67.91
2024-04-16T00:59:59.043Z,68.00
2024-04-16T01:00:30.495Z,68.17
2024-04-16T01:01:02.042Z,68.21
2024-04-16T01:01:38.112Z,68.19
2024-04-16T01:02:09.613Z,67.94
2024-04-16T01:02:41.027Z,67.54
2024-04-16T01:03:12.634Z,67.43
2024-04-16T01:03:44.235Z,67.34
2024-04-16T01:04:15.782Z,67.38
2024-04-16T01:04:47.783Z,67.61
2024-04-16T01:05:19.190Z,67.69
2024-04-16T01:05:51.033Z,67.72
2024-04-16T01:06:25.610Z,67.98
2024-04-16T01:06:57.068Z,68.32
2024-04-16T01:07:28.487Z,68.67
2024-04-16T01:08:00.991Z,68.79
2024-04-16T01:08:32.408Z,69.13
2024-04-16T01:09:03.822Z,69.21
2024-04-16T01:09:35.243Z,68.86
2024-04-16T01:10:06.987Z,68.75
2024-04-16T01:10:39.827Z,68.85
2024-04-16T01:11:22.023Z,68.45
2024-04-16T01:11:57.927Z,67.97
2024-04-16T01:12:29.323Z,68.14
2024-04-16T01:13:00.768Z,68.40
2024-04-16T01:13:32.229Z,69.11
2024-04-16T01:14:03.680Z,69.56
2024-04-16T01:14:35.204Z,69.60
2024-04-16T01:15:06.679Z,69.73
2024-04-16T01:15:38.097Z,69.69
2024-04-16T01:16:09.656Z,69.69
2024-04-16T01:16:41.468Z,70.05
2024-04-16T01:17:12.950Z,69.75
2024-04-16T01:17:44.715Z,69.15
2024-04-16T01:18:16.227Z,68.68
2024-04-16T01:18:47.718Z,68.97
2024-04-16T01:19:19.183Z,69.09
2024-04-16T01:19:50.590Z,69.14
2024-04-16T01:20:22.405Z,68.99
2024-04-16T01:20:54.159Z,69.11
2024-04-16T01:21:25.583Z,69.13
2024-04-16T01:21:56.983Z,69.48
2024-04-16T01:22:29.122Z,69.64
2024-04-16T01:23:00.725Z,69.49
2024-04-16T01:23:32.148Z,69.53
2024-04-16T01:24:03.687Z,69.72
2024-04-16T01:24:35.154Z,69.90
2024-04-16T01:25:06.833Z,70.26
2024-04-16T01:25:38.327Z,70.23
2024-04-16T01:26:09.762Z,69.88
2024-04-16T01:26:41.204Z,70.07
2024-04-16T01:27:12.600Z,70.19
2024-04-16T01:27:44.414Z,70.22
2024-04-16T01:28:15.869Z,70.23
2024-04-16T01:28:47.260Z,70.38
2024-04-16T01:29:18.676Z,70.43
2024-04-16T01:29:50.093Z,70.47
2024-04-16T01:30:21.505Z,70.59
2024-04-16T01:30:52.925Z,70.36
2024-04-16T01:31:25.378Z,70.32
2024-04-16T01:31:56.865Z,70.69
2024-04-16T01:32:28.392Z,70.80
2024-04-16T01:32:59.914Z,70.19
2024-04-16T01:33:31.324Z,69.99
2024-04-16T01:34:02.779Z,70.01
2024-04-16T01:34:34.493Z,69.88
2024-04-16T01:35:06.311Z,69.70
2024-04-16T01:35:37.862Z,69.58
2024-04-16T01:36:09.278Z,69.69
2024-04-16T01:36:40.700Z,69.79
2024-04-16T01:37:12.360Z,69.98
2024-04-16T01:37:43.786Z,70.22
2024-04-16T01:38:15.208Z,70.44
2024-04-16T01:38:46.650Z,70.26
2024-04-16T01:39:18.051Z,70.54
2024-04-16T01:39:49.518Z,70.52
2024-04-16T01:40:20.946Z,70.54
2024-04-16T01:40:52.354Z,70.75
2024-04-16T01:41:23.764Z,70.86
2024-04-16T01:41:55.511Z,70.72
2024-04-16T01:42:27.083Z,70.84
2024-04-16T01:42:58.480Z,70.89
2024-04-16T01:43:30.060Z,70.69
2024-04-16T01:44:02.866Z,70.40
2024-04-16T01:44:34.286Z,70.52
2024-04-16T01:45:05.707Z,70.62
2024-04-16T01:45:37.117Z,70.76
2024-04-16T01:46:09.247Z,70.92
2024-04-16T01:46:40.734Z,71.22
2024-04-16T01:47:12.239Z,71.43
2024-04-16T01:47:43.774Z,71.30
2024-04-16T01:48:15.390Z,71.32
2024-04-16T01:48:46.846Z,71.39
2024-04-16T01:49:19.434Z,71.13
2024-04-16T01:49:51.067Z,71.02
2024-04-16T01:50:22.503Z,71.20
2024-04-16T01:50:53.961Z,71.27
2024-04-16T01:51:25.394Z,71.13
2024-04-16T01:51:56.810Z,70.97
2024-04-16T01:52:28.242Z,71.05
2024-04-16T01:52:59.774Z,71.12
2024-04-16T01:53:31.190Z,71.21
2024-04-16T01:54:02.591Z,71.20
2024-04-16T01:54:34.021Z,71.20
2024-04-16T01:55:05.486Z,71.31
2024-04-16T01:55:38.546Z,71.30
2024-04-16T01:56:09.981Z,71.26
2024-04-16T01:56:41.393Z,71.33
2024-04-16T01:57:12.974Z,71.32
2024-04-16T01:57:44.420Z,71.43
2024-04-16T01:58:15.923Z,71.26
2024-04-16T01:58:47.359Z,71.15
2024-04-16T01:59:18.765Z,71.06
2024-04-16T01:59:50.380Z,71.10
2024-04-16T02:00:21.790Z,71.09
2024-04-16T02:00:59.874Z,71.08
2024-04-16T02:01:31.444Z,71.09
2024-04-16T02:02:02.948Z,71.30
2024-04-16T02:02:37.896Z,71.42
2024-04-16T02:03:09.800Z,71.50
2024-04-16T02:03:41.889Z,71.70
2024-04-16T02:04:13.508Z,71.72
2024-04-16T02:04:45.063Z,71.89
2024-04-16T02:05:16.488Z,71.96
2024-04-16T02:05:47.907Z,72.27
2024-04-16T02:06:19.325Z,72.28
2024-04-16T02:06:50.740Z,71.88
2024-04-16T02:07:22.177Z,71.74
2024-04-16T02:07:53.609Z,71.81
2024-04-16T02:08:25.214Z,71.74
2024-04-16T02:08:56.921Z,71.65
2024-04-16T02:09:28.577Z,71.69
2024-04-16T02:10:00.028Z,72.00
2024-04-16T02:10:31.503Z,72.01
2024-04-16T02:11:03.072Z,72.10
2024-04-16T02:11:34.600Z,72.47
2024-04-16T02:12:06.140Z,72.53
2024-04-16T02:12:37.716Z,72.53
2024-04-16T02:13:09.129Z,72.74
2024-04-16T02:13:40.593Z,72.87
2024-04-16T02:14:12.011Z,72.98
2024-04-16T02:14:43.405Z,73.02
2024-04-16T02:15:14.836Z,72.89
2024-04-16T02:15:46.257Z,73.01
2024-04-16T02:16:17.680Z,73.42
2024-04-16T02:16:49.124Z,73.47
2024-04-16T02:17:21.813Z,73.47
2024-04-16T02:17:53.329Z,73.39
2024-04-16T02:18:24.864Z,73.14
2024-04-16T02:18:56.334Z,73.25
2024-04-16T02:19:27.811Z,73.31
2024-04-16T02:19:59.224Z,73.69
2024-04-16T02:20:30.898Z,74.38
2024-04-16T02:21:02.372Z,74.15
2024-04-16T02:21:33.765Z,74.25
2024-04-16T02:22:05.211Z,73.73
2024-04-16T02:22:36.720Z,73.77
2024-04-16T02:23:08.284Z,73.66
2024-04-16T02:23:40.829Z,74.00
2024-04-16T02:24:12.250Z,74.14
2024-04-16T02:24:43.676Z,74.19
2024-04-16T02:25:15.612Z,74.00
2024-04-16T02:25:47.778Z,73.97
2024-04-16T02:26:19.192Z,74.18
2024-04-16T02:26:50.633Z,73.94
2024-04-16T02:27:22.025Z,73.72
2024-04-16T02:27:53.452Z,73.89
2024-04-16T02:28:24.892Z,73.47
2024-04-16T02:28:57.027Z,73.97
2024-04-16T02:29:28.461Z,74.48
2024-04-16T02:29:59.888Z,74.50
2024-04-16T02:30:31.990Z,74.33
2024-04-16T02:31:03.597Z,74.46
2024-04-16T02:31:35.091Z,74.77
2024-04-16T02:32:06.842Z,74.66
2024-04-16T02:32:38.384Z,74.39
2024-04-16T02:33:15.508Z,74.60
2024-04-16T02:33:46.937Z,74.53
2024-04-16T02:34:18.741Z,73.17
2024-04-16T02:34:50.146Z,73.02
2024-04-16T02:35:21.594Z,73.41
2024-04-16T02:35:55.518Z,73.84
2024-04-16T02:36:27.985Z,74.34
2024-04-16T02:36:59.445Z,74.22
2024-04-16T02:37:30.863Z,74.32
2024-04-16T02:38:02.317Z,74.72
2024-04-16T02:38:33.736Z,74.89
2024-04-16T02:39:05.162Z,74.96
2024-04-16T02:39:36.571Z,74.78
2024-04-16T02:40:08.254Z,74.70
2024-04-16T02:40:39.766Z,74.67
2024-04-16T02:41:11.168Z,74.71
2024-04-16T02:41:43.460Z,74.90
2024-04-16T02:42:14.901Z,75.18
2024-04-16T02:42:46.288Z,75.33
2024-04-16T02:43:17.733Z,74.95
2024-04-16T02:43:49.120Z,75.18
2024-04-16T02:44:20.537Z,74.84
2024-04-16T02:44:52.213Z,75.08
2024-04-16T02:45:23.633Z,75.01
2024-04-16T02:45:55.233Z,75.05
2024-04-16T02:46:27.590Z,75.07
2024-04-16T02:47:00.581Z,75.27
2024-04-16T02:47:33.075Z,75.55
2024-04-16T02:48:05.248Z,75.20
2024-04-16T02:48:36.670Z,75.09
2024-04-16T02:49:08.118Z,75.28
2024-04-16T02:49:39.593Z,75.47
2024-04-16T02:50:11.032Z,75.49
2024-04-16T02:50:42.451Z,75.70
2024-04-16T02:51:15.026Z,75.70
2024-04-16T02:51:46.478Z,75.78
2024-04-16T02:52:17.973Z,75.87
2024-04-16T02:52:49.450Z,75.91
2024-04-16T02:53:20.871Z,75.70
2024-04-16T02:53:52.303Z,75.96
2024-04-16T02:54:23.720Z,75.61
2024-04-16T02:54:56.185Z,75.12
2024-04-16T02:55:27.610Z,74.97
2024-04-16T02:55:59.057Z,75.45
2024-04-16T02:56:30.482Z,75.83
2024-04-16T02:57:01.916Z,75.62
2024-04-16T02:57:36.326Z,75.70
2024-04-16T02:58:07.776Z,75.59
2024-04-16T02:58:39.228Z,75.36
2024-04-16T02:59:10.648Z,74.98
2024-04-16T02:59:42.072Z,74.91
2024-04-16T03:00:13.566Z,75.38
2024-04-16T03:00:45.012Z,75.55
2024-04-16T03:01:16.453Z,75.59
2024-04-16T03:01:47.956Z,75.47
2024-04-16T03:02:19.459Z,75.45
2024-04-16T03:02:50.906Z,75.35
2024-04-16T03:03:22.339Z,75.13
2024-04-16T03:03:56.045Z,75.40
2024-04-16T03:04:27.517Z,75.38
2024-04-16T03:04:58.951Z,75.54
2024-04-16T03:05:30.425Z,75.81
2024-04-16T03:06:02.170Z,75.80
2024-04-16T03:06:33.585Z,75.48
2024-04-16T03:07:05.062Z,75.78
2024-04-16T03:07:36.570Z,76.21
2024-04-16T03:08:07.992Z,76.11
2024-04-16T03:08:39.678Z,76.79
2024-04-16T03:09:11.101Z,76.67
2024-04-16T03:09:42.510Z,75.80
2024-04-16T03:10:15.732Z,75.90
2024-04-16T03:10:47.312Z,76.11
2024-04-16T03:11:18.851Z,75.79
2024-04-16T03:11:50.363Z,75.87
2024-04-16T03:12:21.911Z,75.92
2024-04-16T03:12:53.489Z,76.03
2024-04-16T03:13:24.987Z,76.16
2024-04-16T03:13:56.377Z,76.13
2024-04-16T03:14:29.385Z,76.37
2024-04-16T03:15:01.058Z,76.37
2024-04-16T03:15:32.490Z,76.35
2024-04-16T03:16:06.992Z,76.40
2024-04-16T03:16:39.219Z,76.23
2024-04-16T03:17:10.703Z,76.43
2024-04-16T03:17:42.238Z,76.53
2024-04-16T03:18:13.775Z,76.85
2024-04-16T03:18:45.307Z,77.06
2024-04-16T03:19:16.983Z,76.97
2024-04-16T03:19:48.615Z,76.71
2024-04-16T03:20:20.026Z,76.46
2024-04-16T03:21:00.730Z,75.88
2024-04-16T03:21:32.359Z,75.90
2024-04-16T03:22:03.956Z,76.09
2024-04-16T03:22:35.510Z,76.57
2024-04-16T03:23:06.952Z,77.14
2024-04-16T03:23:38.359Z,77.65
2024-04-16T03:24:09.782Z,77.68
2024-04-16T03:24:41.192Z,77.76
2024-04-16T03:25:13.054Z,77.56
2024-04-16T03:25:44.540Z,77.29
2024-04-16T03:26:15.968Z,77.11
2024-04-16T03:26:47.421Z,77.28
2024-04-16T03:27:19.051Z,77.27
2024-04-16T03:27:50.798Z,77.50
2024-04-16T03:28:22.413Z,77.61
2024-04-16T03:28:53.875Z,77.56
2024-04-16T03:29:25.291Z,77.43
2024-04-16T03:29:56.722Z,77.95
2024-04-16T03:30:28.151Z,78.13
2024-04-16T03:30:59.592Z,78.34
2024-04-16T03:31:31.055Z,78.16
2024-04-16T03:32:02.538Z,77.62
2024-04-16T03:32:34.037Z,77.73
2024-04-16T03:33:05.602Z,78.12
2024-04-16T03:33:37.075Z,77.87
2024-04-16T03:34:08.536Z,77.64
2024-04-16T03:34:40.029Z,77.58
2024-04-16T03:35:11.475Z,77.65
2024-04-16T03:35:42.896Z,77.43
2024-04-16T03:36:14.487Z,77.56
2024-04-16T03:36:45.927Z,77.28
2024-04-16T03:37:17.392Z,76.98
2024-04-16T03:37:49.036Z,77.30
2024-04-16T03:38:20.911Z,77.22
2024-04-16T03:38:52.361Z,77.11
2024-04-16T03:39:23.755Z,76.82
2024-04-16T03:39:55.185Z,76.87
2024-04-16T03:40:26.757Z,77.24
2024-04-16T03:41:00.833Z,77.45
2024-04-16T03:41:32.257Z,77.46
2024-04-16T03:42:03.819Z,77.35
2024-04-16T03:42:35.233Z,76.92
2024-04-16T03:43:06.713Z,77.13
2024-04-16T03:43:38.238Z,77.12
2024-04-16T03:44:09.727Z,76.91
2024-04-16T03:44:41.278Z,76.80
2024-04-16T03:45:12.664Z,76.69
2024-04-16T03:45:54.011Z,76.61
2024-04-16T03:46:25.477Z,75.75
2024-04-16T03:46:56.990Z,75.53
2024-04-16T03:47:29.176Z,75.72
2024-04-16T03:48:00.772Z,75.69
2024-04-16T03:48:32.198Z,76.24
2024-04-16T03:49:03.685Z,76.12
2024-04-16T03:49:35.158Z,75.82
2024-04-16T03:50:06.672Z,75.68
2024-04-16T03:50:38.092Z,75.92
2024-04-16T03:51:09.506Z,76.15
2024-04-16T03:51:40.920Z,76.03
2024-04-16T03:52:12.463Z,75.72
2024-04-16T03:52:44.008Z,75.54
2024-04-16T03:53:15.507Z,75.70
2024-04-16T03:53:46.995Z,76.14
2024-04-16T03:54:18.427Z,76.29
2024-04-16T03:54:50.853Z,76.12
2024-04-16T03:55:22.276Z,76.24
2024-04-16T03:55:58.696Z,75.35
2024-04-16T03:56:30.127Z,75.09
2024-04-16T03:57:01.559Z,75.33
2024-04-16T03:57:32.968Z,74.99
2024-04-16T03:58:04.555Z,75.01
2024-04-16T03:58:44.100Z,75.58
2024-04-16T03:59:16.604Z,75.80
2024-04-16T04:00:06.743Z,75.82
2024-04-16T04:00:56.774Z,76.15
2024-04-16T04:01:28.223Z,76.19
2024-04-16T04:01:59.676Z,76.28
2024-04-16T04:02:31.131Z,76.48
2024-04-16T04:03:02.649Z,76.13
2024-04-16T04:03:34.339Z,76.03
2024-04-16T04:04:05.920Z,75.99
2024-04-16T04:04:37.474Z,76.04
2024-04-16T04:05:09.017Z,76.23
2024-04-16T04:05:40.439Z,76.42
2024-04-16T04:06:11.868Z,76.18
2024-04-16T04:06:43.271Z,75.94
2024-04-16T04:07:14.766Z,76.11
2024-04-16T04:07:48.005Z,76.28
2024-04-16T04:08:19.421Z,76.14
2024-04-16T04:08:50.882Z,76.20
2024-04-16T04:09:22.295Z,76.30
2024-04-16T04:09:53.720Z,76.27
2024-04-16T04:10:25.198Z,76.53
2024-04-16T04:10:56.672Z,76.81
2024-04-16T04:11:28.171Z,76.99
2024-04-16T04:11:59.619Z,77.10
2024-04-16T04:12:31.034Z,77.25
2024-04-16T04:13:02.510Z,77.42
2024-04-16T04:13:34.010Z,77.18
2024-04-16T04:14:05.436Z,76.89
2024-04-16T04:14:37.625Z,77.24
2024-04-16T04:15:09.950Z,77.10
2024-04-16T04:15:41.380Z,76.65
2024-04-16T04:16:14.241Z,76.72
2024-04-16T04:16:45.652Z,76.92
2024-04-16T04:17:17.092Z,76.92
2024-04-16T04:17:48.566Z,77.02
2024-04-16T04:18:20.117Z,76.69
2024-04-16T04:18:52.565Z,76.62
2024-04-16T04:19:23.996Z,76.61
2024-04-16T04:19:55.399Z,76.61
2024-04-16T04:20:26.830Z,76.93
2024-04-16T04:20:58.261Z,77.03
2024-04-16T04:21:29.685Z,77.33
2024-04-16T04:22:01.162Z,77.37
2024-04-16T04:22:32.766Z,77.47
2024-04-16T04:23:04.520Z,77.45
2024-04-16T04:23:35.938Z,77.11
2024-04-16T04:24:15.585Z,77.27
2024-04-16T04:24:51.499Z,77.32
2024-04-16T04:25:23.255Z,77.34
2024-04-16T04:25:54.679Z,77.41
2024-04-16T04:26:26.088Z,77.42
2024-04-16T04:26:57.501Z,77.05
2024-04-16T04:27:28.944Z,77.10
2024-04-16T04:28:00.337Z,77.05
2024-04-16T04:28:31.784Z,76.84
2024-04-16T04:29:03.205Z,76.74
2024-04-16T04:29:34.867Z,76.83
2024-04-16T04:30:07.433Z,76.74
2024-04-16T04:30:38.845Z,76.84
2024-04-16T04:31:15.144Z,76.33
2024-04-16T04:31:46.731Z,76.30
2024-04-16T04:32:19.284Z,76.44
2024-04-16T04:32:52.776Z,76.41
2024-04-16T04:33:24.825Z,76.45
2024-04-16T04:33:56.231Z,76.80
2024-04-16T04:34:27.820Z,76.62
2024-04-16T04:34:59.840Z,76.30
2024-04-16T04:35:31.307Z,76.49
2024-04-16T04:36:02.729Z,76.60
2024-04-16T04:36:34.208Z,76.12
2024-04-16T04:37:05.690Z,75.49
2024-04-16T04:37:37.207Z,75.37
2024-04-16T04:38:08.613Z,75.15
2024-04-16T04:38:40.179Z,74.80
2024-04-16T04:39:11.594Z,75.00
2024-04-16T04:39:43.624Z,75.32
2024-04-16T04:40:15.130Z,75.72
2024-04-16T04:40:46.559Z,75.41
2024-04-16T04:41:19.055Z,75.00
2024-04-16T04:41:50.476Z,74.88
2024-04-16T04:42:22.119Z,75.12
2024-04-16T04:42:55.204Z,75.20
2024-04-16T04:43:26.675Z,74.76
2024-04-16T04:43:58.135Z,74.45
2024-04-16T04:44:29.552Z,74.35
2024-04-16T04:45:01.067Z,74.50
2024-04-16T04:45:32.772Z,74.32
2024-04-16T04:46:04.252Z,73.78
2024-04-16T04:46:35.937Z,73.72
2024-04-16T04:47:07.477Z,74.04
2024-04-16T04:47:38.995Z,74.33
2024-04-16T04:48:10.585Z,74.59
2024-04-16T04:48:42.199Z,74.52
2024-04-16T04:49:13.681Z,74.04
2024-04-16T04:49:45.158Z,73.86
2024-04-16T04:50:16.590Z,73.94
2024-04-16T04:50:47.991Z,74.28
2024-04-16T04:51:19.428Z,74.27
2024-04-16T04:51:50.836Z,74.13
2024-04-16T04:52:22.279Z,73.97
2024-04-16T04:52:53.725Z,73.97
2024-04-16T04:53:25.319Z,74.07
2024-04-16T04:53:56.743Z,74.29
2024-04-16T04:54:28.185Z,74.45
2024-04-16T04:55:02.159Z,74.42
2024-04-16T04:55:33.660Z,74.60
2024-04-16T04:56:07.581Z,74.41
2024-04-16T04:56:38.966Z,74.53
2024-04-16T04:57:10.388Z,74.22
2024-04-16T04:57:42.101Z,74.16
2024-04-16T04:58:16.565Z,74.26
2024-04-16T04:58:47.993Z,74.51
2024-04-16T04:59:19.461Z,74.46
2024-04-16T04:59:50.877Z,74.34
2024-04-16T05:00:23.217Z,74.36
2024-04-16T05:00:54.666Z,74.64
2024-04-16T05:01:26.130Z,74.60
2024-04-16T05:01:59.045Z,74.18
2024-04-16T05:02:30.537Z,74.07
2024-04-16T05:03:04.592Z,74.17
2024-04-16T05:03:36.649Z,74.62
2024-04-16T05:04:08.307Z,74.91
2024-04-16T05:04:39.772Z,75.09
2024-04-16T05:05:11.172Z,75.20
2024-04-16T05:05:45.969Z,75.03
2024-04-16T05:06:17.386Z,74.95
2024-04-16T05:06:48.813Z,75.01
2024-04-16T05:07:23.278Z,75.09
2024-04-16T05:07:54.714Z,75.13
2024-04-16T05:08:28.652Z,75.23
2024-04-16T05:09:00.387Z,75.39
2024-04-16T05:09:31.791Z,74.56
2024-04-16T05:10:03.685Z,74.65
2024-04-16T05:10:35.182Z,74.84
2024-04-16T05:11:06.663Z,75.16
2024-04-16T05:11:38.138Z,75.20
2024-04-16T05:12:11.864Z,75.33
2024-04-16T05:12:43.994Z,75.72
2024-04-16T05:13:15.451Z,75.25
2024-04-16T05:13:46.916Z,74.54
2024-04-16T05:14:19.656Z,75.00
2024-04-16T05:14:51.078Z,74.47
2024-04-16T05:15:22.499Z,74.09
2024-04-16T05:15:53.929Z,74.35
2024-04-16T05:16:25.354Z,74.12
2024-04-16T05:16:56.882Z,73.67
2024-04-16T05:17:28.429Z,73.68
2024-04-16T05:18:00.507Z,73.13
2024-04-16T05:18:32.040Z,73.60
2024-04-16T05:19:03.675Z,73.40
2024-04-16T05:19:36.086Z,73.34
2024-04-16T05:20:07.617Z,72.93
2024-04-16T05:20:39.034Z,72.86
2024-04-16T05:21:12.819Z,71.50
2024-04-16T05:21:44.224Z,71.88
2024-04-16T05:22:15.681Z,72.23
2024-04-16T05:22:56.421Z,72.28
2024-04-16T05:23:27.871Z,72.24
2024-04-16T05:24:02.123Z,72.14
2024-04-16T05:24:33.983Z,71.95
2024-04-16T05:25:05.699Z,71.37
2024-04-16T05:25:37.135Z,71.30
2024-04-16T05:26:08.586Z,71.30
2024-04-16T05:26:39.987Z,71.25
2024-04-16T05:27:11.431Z,71.23
2024-04-16T05:27:44.473Z,70.91
2024-04-16T05:28:16.112Z,70.43
2024-04-16T05:28:47.529Z,70.79
2024-04-16T05:29:18.942Z,70.97
2024-04-16T05:29:50.398Z,71.05
2024-04-16T05:30:22.291Z,71.05
2024-04-16T05:30:53.826Z,71.14
2024-04-16T05:31:25.351Z,71.08
2024-04-16T05:31:56.937Z,70.11
2024-04-16T05:32:28.465Z,69.63
2024-04-16T05:32:59.916Z,68.78
2024-04-16T05:33:31.357Z,67.77
2024-04-16T05:34:02.839Z,68.09
2024-04-16T05:34:34.302Z,68.90
2024-04-16T05:35:05.850Z,68.69
2024-04-16T05:35:37.282Z,68.32
2024-04-16T05:36:08.859Z,68.66
2024-04-16T05:37:18.768Z,69.21
2024-04-16T05:37:50.183Z,69.12
2024-04-16T05:38:21.687Z,68.78
2024-04-16T05:38:53.111Z,68.02
2024-04-16T05:39:24.509Z,67.99
2024-04-16T05:39:55.922Z,67.73
2024-04-16T05:40:33.275Z,67.79
2024-04-16T05:41:04.708Z,68.33
2024-04-16T05:41:36.113Z,68.16
2024-04-16T05:42:07.530Z,67.93
2024-04-16T05:42:40.817Z,68.16
2024-04-16T05:43:12.237Z,67.88
2024-04-16T05:43:43.721Z,67.46
2024-04-16T05:44:18.274Z,67.05
2024-04-16T05:44:49.713Z,67.07
2024-04-16T05:45:21.120Z,66.97
2024-04-16T05:45:53.329Z,66.74
2024-04-16T05:46:24.829Z,67.00
2024-04-16T05:46:56.602Z,67.08
2024-04-16T05:47:28.073Z,67.16
2024-04-16T05:47:59.585Z,67.05
2024-04-16T05:48:31.021Z,67.65
2024-04-16T05:49:02.517Z,68.24
2024-04-16T05:49:34.026Z,67.34
2024-04-16T05:50:05.707Z,67.42
2024-04-16T05:50:37.119Z,67.66
2024-04-16T05:51:08.672Z,67.53
2024-04-16T05:51:40.613Z,67.23
2024-04-16T05:52:12.043Z,66.88
2024-04-16T05:52:43.513Z,67.22
2024-04-16T05:53:15.178Z,67.50
2024-04-16T05:53:46.603Z,67.89
2024-04-16T05:54:18.008Z,67.44
2024-04-16T05:54:49.704Z,67.30
2024-04-16T05:55:21.687Z,67.19
2024-04-16T05:55:53.109Z,67.19
2024-04-16T05:56:24.534Z,66.81
2024-04-16T05:56:55.955Z,66.79
2024-04-16T05:57:27.369Z,66.78
2024-04-16T05:57:58.776Z,66.88
2024-04-16T05:58:30.225Z,66.96
2024-04-16T05:59:01.685Z,67.01
2024-04-16T05:59:33.083Z,66.76
2024-04-16T06:00:05.562Z,66.38
2024-04-16T06:00:37.597Z,66.58
2024-04-16T06:01:09.093Z,67.11
2024-04-16T06:01:43.688Z,67.48
2024-04-16T06:02:15.220Z,67.03
2024-04-16T06:02:46.698Z,67.16
2024-04-16T06:03:18.508Z,66.33
2024-04-16T06:03:50.032Z,66.29
2024-04-16T06:04:22.099Z,66.75
2024-04-16T06:04:53.555Z,67.23
2024-04-16T06:05:28.376Z,67.24
2024-04-16T06:06:02.692Z,67.34
2024-04-16T06:06:37.143Z,66.37
2024-04-16T06:07:08.618Z,66.05
2024-04-16T06:07:40.188Z,66.50
2024-04-16T06:08:14.483Z,66.09
2024-04-16T06:08:45.914Z,66.54
2024-04-16T06:09:35.429Z,66.66
2024-04-16T06:10:07.331Z,66.64
2024-04-16T06:10:44.539Z,66.76
2024-04-16T06:11:16.814Z,66.96
2024-04-16T06:11:48.320Z,67.18
2024-04-16T06:12:22.061Z,67.32
2024-04-16T06:12:56.543Z,67.79
2024-04-16T06:13:27.992Z,67.16
2024-04-16T06:13:59.542Z,67.41
2024-04-16T06:14:31.026Z,66.93
2024-04-16T06:15:02.894Z,66.74
2024-04-16T06:15:34.339Z,67.00
2024-04-16T06:16:05.940Z,66.93
2024-04-16T06:16:37.475Z,66.91
2024-04-16T06:17:08.933Z,66.86
2024-04-16T06:17:40.496Z,67.31
2024-04-16T06:18:14.704Z,67.26
2024-04-16T06:18:53.500Z,67.03
2024-04-16T06:19:27.345Z,67.06
2024-04-16T06:19:58.906Z,67.03
2024-04-16T06:20:39.468Z,67.35
2024-04-16T06:21:11.080Z,67.00
2024-04-16T06:21:48.104Z,66.69
2024-04-16T06:22:29.844Z,66.45
2024-04-16T06:23:04.119Z,67.37
2024-04-16T06:23:35.602Z,67.49
2024-04-16T06:24:10.119Z,67.25
2024-04-16T06:24:43.884Z,67.35
2024-04-16T06:25:17.710Z,67.58
2024-04-16T06:25:49.390Z,67.15
2024-04-16T06:26:23.571Z,67.46
2024-04-16T06:26:57.277Z,67.11
2024-04-16T06:27:31.890Z,67.31
2024-04-16T06:28:06.574Z,67.49
2024-04-16T06:28:38.438Z,66.75
2024-04-16T06:29:12.504Z,66.73
2024-04-16T06:29:44.038Z,66.62
2024-04-16T06:30:15.586Z,66.54
2024-04-16T06:30:47.225Z,67.00
2024-04-16T06:31:18.657Z,66.85
2024-04-16T06:31:50.187Z,66.60
2024-04-16T06:32:21.803Z,66.93
2024-04-16T06:32:55.766Z,67.15
2024-04-16T06:33:28.672Z,67.00
2024-04-16T06:34:00.245Z,66.58
2024-04-16T06:34:32.056Z,67.25
2024-04-16T06:35:03.862Z,66.17
2024-04-16T06:35:35.737Z,66.67
2024-04-16T06:36:10.191Z,66.89
2024-04-16T06:36:44.278Z,66.94
2024-04-16T06:37:17.376Z,66.47
2024-04-16T06:37:48.834Z,66.58
2024-04-16T06:38:30.602Z,66.93
2024-04-16T06:39:02.090Z,66.49
2024-04-16T06:39:33.506Z,66.91
2024-04-16T06:40:06.582Z,66.71
2024-04-16T06:40:38.250Z,66.70
2024-04-16T06:41:09.851Z,67.01
2024-04-16T06:41:47.671Z,67.30
2024-04-16T06:42:22.174Z,66.36
2024-04-16T06:42:54.552Z,66.55
2024-04-16T06:43:26.969Z,66.53
2024-04-16T06:43:58.380Z,66.54
2024-04-16T06:44:29.950Z,66.82
2024-04-16T06:45:01.344Z,67.13
2024-04-16T06:45:32.937Z,66.61
2024-04-16T06:46:04.563Z,66.12
2024-04-16T06:46:36.071Z,66.18
2024-04-16T06:47:07.556Z,66.22
2024-04-16T06:47:38.994Z,66.77
2024-04-16T06:48:10.483Z,66.29
2024-04-16T06:48:42.000Z,66.79
2024-04-16T06:49:18.410Z,67.12
2024-04-16T06:49:50.920Z,67.21
2024-04-16T06:50:22.421Z,66.95
2024-04-16T06:50:53.857Z,67.20
2024-04-16T06:51:27.790Z,67.81
2024-04-16T06:52:02.785Z,67.14
2024-04-16T06:52:34.294Z,66.80
2024-04-16T06:53:05.785Z,66.70